San Martin de los Andes, Argentina
Current Conditions -  °F | °C
As of 11:00 AM on Friday 31 Oct 2014 (Local Time) from SAZS Reporting Station
Scattered Clouds Scattered Clouds  
Wind Chill:   Ceiling: Unl
Heat Index:   Visibility: 6mi
Dew Point: -2°   Wind: 15mph
Humidity: 57%   Direction: 320°NW
Pressure: 30.12"   Gusts: NA
Location:  40.16°S, 71.36°W
Report Text: SAZS 311400Z 32013KT 9999 SCT035 FEW040 06/M02 Q1020
Loading
Personal Weather Stations






























Interactive Weather Map
Tropical Storm Tracking
New forecast layout! Learn more

10-Day Weather Forecast

Advertisements
Track Severe Weather on mobile